TimeMST,TemperatureF,Dew PointF,Humidity,Sea Level PressureIn,VisibilityMPH,Wind Direction,Wind SpeedMPH,Gust SpeedMPH,PrecipitationIn,Events,Conditions,WindDirDegrees,DateUTC
12:53 AM,19.9,12.9,74,30.04,10.0,WSW,18.4,-,N/A,,Overcast,240,2012-12-28 07:53:00
1:53 AM,19.9,14.0,78,30.04,10.0,SW,19.6,-,N/A,,Overcast,230,2012-12-28 08:53:00
2:53 AM,19.9,14.0,78,30.06,10.0,SW,19.6,-,N/A,,Overcast,230,2012-12-28 09:53:00
3:53 AM,21.2,14.0,74,29.91,10.0,SW,19.6,-,N/A,,Overcast,230,2012-12-28 10:53:00
4:53 AM,19.4,14.0,80,29.91,10.0,SW,23.0,-,N/A,,Overcast,230,2012-12-28 11:53:00
5:53 AM,19.9,12.9,74,30.07,10.0,WSW,20.7,-,N/A,,Overcast,240,2012-12-28 12:53:00
6:53 AM,19.9,12.9,74,30.07,10.0,WSW,19.6,-,N/A,,Scattered Clouds,240,2012-12-28 13:53:00
7:53 AM,19.9,12.9,74,30.08,10.0,WSW,19.6,-,N/A,,Mostly Cloudy,240,2012-12-28 14:53:00
8:53 AM,19.4,14.0,80,29.96,10.0,WSW,18.4,-,N/A,,Overcast,240,2012-12-28 15:53:00
9:53 AM,21.2,15.8,80,29.98,10.0,SW,13.8,-,N/A,,Overcast,230,2012-12-28 16:53:00
10:53 AM,24.1,16.0,71,30.12,10.0,WSW,16.1,-,N/A,,Mostly Cloudy,240,2012-12-28 17:53:00
11:53 AM,26.1,18.0,71,30.10,10.0,SW,13.8,-,N/A,,Mostly Cloudy,230,2012-12-28 18:53:00
12:53 PM,27.0,17.1,66,30.08,10.0,WSW,18.4,-,N/A,,Partly Cloudy,240,2012-12-28 19:53:00
1:53 PM,28.0,18.0,66,30.09,10.0,SW,15.0,-,N/A,,Partly Cloudy,230,2012-12-28 20:53:00
2:53 PM,27.0,18.0,69,30.10,10.0,SW,12.7,-,N/A,,Partly Cloudy,230,2012-12-28 21:53:00
3:53 PM,26.1,17.1,69,30.11,10.0,WSW,13.8,-,N/A,,Clear,240,2012-12-28 22:53:00
4:53 PM,25.0,16.0,69,30.13,10.0,WSW,15.0,-,N/A,,Clear,240,2012-12-28 23:53:00
5:53 PM,23.0,15.1,72,30.14,10.0,WSW,18.4,-,N/A,,Clear,240,2012-12-29 00:53:00
6:53 PM,23.0,14.0,68,30.14,10.0,WSW,20.7,-,N/A,,Clear,240,2012-12-29 01:53:00
7:53 PM,21.9,12.9,68,30.14,10.0,WSW,18.4,-,N/A,,Clear,240,2012-12-29 02:53:00
8:53 PM,21.0,12.9,71,30.14,10.0,SW,15.0,-,N/A,,Clear,230,2012-12-29 03:53:00
9:53 PM,17.6,10.4,73,30.01,10.0,SW,12.7,-,N/A,,Clear,230,2012-12-29 04:53:00
10:53 PM,18.0,10.9,74,30.17,10.0,WSW,15.0,-,N/A,,Clear,240,2012-12-29 05:53:00
11:53 PM,18.0,10.9,74,30.17,10.0,SW,12.7,-,N/A,,Clear,230,2012-12-29 06:53:00